createdAt,value
2023-03-27T00:00:38.492Z,0.5606
2023-03-27T00:01:40.105Z,0.5604
2023-03-27T00:02:41.958Z,0.5643
2023-03-27T00:03:43.525Z,0.5644
2023-03-27T00:04:45.062Z,0.5668
2023-03-27T00:05:46.733Z,0.5659
2023-03-27T00:06:48.357Z,0.5653
2023-03-27T00:07:50.016Z,0.5652
2023-03-27T00:08:51.657Z,0.5682
2023-03-27T00:09:53.327Z,0.5706
2023-03-27T00:10:55.178Z,0.5721
2023-03-27T00:11:56.617Z,0.5661
2023-03-27T00:12:58.255Z,0.5670
2023-03-27T00:13:59.926Z,0.5627
2023-03-27T00:15:01.537Z,0.5708
2023-03-27T00:16:03.254Z,0.5804
2023-03-27T00:17:04.883Z,0.5813
2023-03-27T00:18:06.552Z,0.5810
2023-03-27T00:19:08.150Z,0.5789
2023-03-27T00:20:09.833Z,0.5764
2023-03-27T00:21:11.513Z,0.5880
2023-03-27T00:22:13.129Z,0.5934
2023-03-27T00:23:14.767Z,0.5891
2023-03-27T00:24:16.435Z,0.5942
2023-03-27T00:25:18.063Z,0.5982
2023-03-27T00:26:19.758Z,0.5917
2023-03-27T00:27:21.371Z,0.5918
2023-03-27T00:28:23.030Z,0.5959
2023-03-27T00:29:24.672Z,0.5987
2023-03-27T00:30:26.325Z,0.5904
2023-03-27T00:31:28.079Z,0.5883
2023-03-27T00:32:29.653Z,0.5879
2023-03-27T00:33:31.300Z,0.5898
2023-03-27T00:34:32.924Z,0.5879
2023-03-27T00:35:34.672Z,0.5907
2023-03-27T00:36:36.248Z,0.5882
2023-03-27T00:37:37.897Z,0.5865
2023-03-27T00:38:39.740Z,0.5810
2023-03-27T00:39:41.222Z,0.5777
2023-03-27T00:40:42.855Z,0.5721
2023-03-27T00:41:44.531Z,0.5664
2023-03-27T00:42:46.152Z,0.5675
2023-03-27T00:43:47.816Z,0.5670
2023-03-27T00:44:49.442Z,0.5671
2023-03-27T00:45:51.126Z,0.5705
2023-03-27T00:46:52.803Z,0.5725
2023-03-27T00:47:54.428Z,0.5758
2023-03-27T00:48:56.047Z,0.5766
2023-03-27T00:49:57.728Z,0.5740
2023-03-27T00:50:59.356Z,0.5715
2023-03-27T00:52:01.058Z,0.5724
2023-03-27T00:53:02.657Z,0.5679
2023-03-27T00:54:04.329Z,0.5639
2023-03-27T00:55:05.985Z,0.5597
2023-03-27T00:56:07.650Z,0.5574
2023-03-27T00:57:09.333Z,0.5622
2023-03-27T00:58:10.946Z,0.5637
2023-03-27T00:59:12.606Z,0.5656
2023-03-27T01:00:14.282Z,0.5639
2023-03-27T01:01:15.904Z,0.5603
2023-03-27T01:02:17.596Z,0.5590
2023-03-27T01:03:19.275Z,0.5616
2023-03-27T01:04:20.849Z,0.5658
2023-03-27T01:05:22.487Z,0.5651
2023-03-27T01:06:24.149Z,0.5637
2023-03-27T01:07:25.788Z,0.5677
2023-03-27T01:08:27.451Z,0.5642
2023-03-27T01:09:29.084Z,0.5588
2023-03-27T01:10:30.753Z,0.5577
2023-03-27T01:11:32.386Z,0.5635
2023-03-27T01:12:34.069Z,0.5656
2023-03-27T01:13:35.693Z,0.5689
2023-03-27T01:14:37.362Z,0.5713
2023-03-27T01:15:39.013Z,0.5664
2023-03-27T01:16:40.663Z,0.5707
2023-03-27T01:17:42.358Z,0.5777
2023-03-27T01:18:43.946Z,0.5786
2023-03-27T01:19:45.594Z,0.5889
2023-03-27T01:20:47.345Z,0.5903
2023-03-27T01:21:48.904Z,0.5921
2023-03-27T01:22:50.599Z,0.5890
2023-03-27T01:23:59.354Z,0.5897
2023-03-27T01:24:53.889Z,0.5962
2023-03-27T01:25:55.500Z,0.5963
2023-03-27T01:26:57.168Z,0.6012
2023-03-27T01:27:58.832Z,0.5870
2023-03-27T01:29:00.477Z,0.5817
2023-03-27T01:30:02.109Z,0.5852
2023-03-27T01:31:03.798Z,0.5912
2023-03-27T01:32:05.414Z,0.5914
2023-03-27T01:33:07.174Z,0.5810
2023-03-27T01:34:08.718Z,0.5799
2023-03-27T01:35:10.398Z,0.5828
2023-03-27T01:36:12.042Z,0.5802
2023-03-27T01:37:13.706Z,0.5797
2023-03-27T01:38:15.355Z,0.5786
2023-03-27T01:39:17.013Z,0.5817
2023-03-27T01:40:18.639Z,0.5869
2023-03-27T01:41:20.316Z,0.5861
2023-03-27T01:42:21.948Z,0.5819
2023-03-27T01:43:23.647Z,0.5860
2023-03-27T01:44:25.247Z,0.5834
2023-03-27T01:45:26.919Z,0.5861
2023-03-27T01:46:28.587Z,0.5860
2023-03-27T01:47:30.237Z,0.5843
2023-03-27T01:48:31.929Z,0.5854
2023-03-27T01:49:33.531Z,0.5775
2023-03-27T01:50:35.152Z,0.5768
2023-03-27T01:51:36.839Z,0.5785
2023-03-27T01:52:38.488Z,0.5785
2023-03-27T01:53:40.294Z,0.5802
2023-03-27T01:54:41.782Z,0.5758
2023-03-27T01:55:43.441Z,0.5752
2023-03-27T01:56:45.091Z,0.5762
2023-03-27T01:57:48.961Z,0.5774
2023-03-27T01:58:48.405Z,0.5702
2023-03-27T01:59:50.061Z,0.5671
2023-03-27T02:01:04.110Z,0.5678
2023-03-27T02:01:53.357Z,0.5691
2023-03-27T02:02:55.009Z,0.5675
2023-03-27T02:03:56.701Z,0.5664
2023-03-27T02:04:58.322Z,0.5704
2023-03-27T02:05:59.962Z,0.5705
2023-03-27T02:07:01.597Z,0.5637
2023-03-27T02:08:03.282Z,0.5575
2023-03-27T02:09:04.911Z,0.5588
2023-03-27T02:10:06.581Z,0.5600
2023-03-27T02:11:08.284Z,0.5529
2023-03-27T02:12:09.946Z,0.5564
2023-03-27T02:13:11.584Z,0.5639
2023-03-27T02:14:13.278Z,0.5610
2023-03-27T02:15:23.659Z,0.5531
2023-03-27T02:16:16.641Z,0.5488
2023-03-27T02:17:18.201Z,0.5510
2023-03-27T02:18:19.881Z,0.5562
2023-03-27T02:19:21.537Z,0.5546
2023-03-27T02:20:23.186Z,0.5532
2023-03-27T02:21:24.846Z,0.5476
2023-03-27T02:22:38.137Z,0.5442
2023-03-27T02:23:28.132Z,0.5433
2023-03-27T02:24:29.867Z,0.5481
2023-03-27T02:25:31.457Z,0.5516
2023-03-27T02:26:33.125Z,0.5509
2023-03-27T02:27:34.743Z,0.5486
2023-03-27T02:28:36.415Z,0.5392
2023-03-27T02:29:38.080Z,0.5348
2023-03-27T02:30:39.735Z,0.5373
2023-03-27T02:31:41.430Z,0.5358
2023-03-27T02:32:43.163Z,0.5323
2023-03-27T02:33:44.681Z,0.5276
2023-03-27T02:34:46.338Z,0.5247
2023-03-27T02:35:48.022Z,0.5221
2023-03-27T02:36:49.646Z,0.5198
2023-03-27T02:37:51.314Z,0.5173
2023-03-27T02:38:52.950Z,0.5211
2023-03-27T02:39:54.638Z,0.5225
2023-03-27T02:40:56.396Z,0.5199
2023-03-27T02:41:57.911Z,0.5220
2023-03-27T02:42:59.577Z,0.5236
2023-03-27T02:44:01.233Z,0.5291
2023-03-27T02:45:02.891Z,0.5308
2023-03-27T02:46:04.625Z,0.5325
2023-03-27T02:47:06.181Z,0.5269
2023-03-27T02:48:07.900Z,0.5240
2023-03-27T02:49:09.484Z,0.5267
2023-03-27T02:50:11.227Z,0.5304
2023-03-27T02:51:12.803Z,0.5326
2023-03-27T02:52:14.464Z,0.5317
2023-03-27T02:53:16.104Z,0.5342
2023-03-27T02:54:17.766Z,0.5312
2023-03-27T02:55:19.426Z,0.5315
2023-03-27T02:56:21.097Z,0.5334
2023-03-27T02:57:24.967Z,0.5260
2023-03-27T02:58:24.391Z,0.5278
2023-03-27T02:59:26.016Z,0.5303
2023-03-27T03:00:27.712Z,0.5308
2023-03-27T03:01:29.365Z,0.5324
2023-03-27T03:02:31.065Z,0.5289
2023-03-27T03:03:32.646Z,0.5234
2023-03-27T03:04:34.307Z,0.5264
2023-03-27T03:05:35.961Z,0.5253
2023-03-27T03:06:37.608Z,0.5284
2023-03-27T03:07:39.248Z,0.5300
2023-03-27T03:08:40.919Z,0.5270
2023-03-27T03:09:42.555Z,0.5288
2023-03-27T03:10:44.241Z,0.5318
2023-03-27T03:11:45.849Z,0.5365
2023-03-27T03:12:47.515Z,0.5387
2023-03-27T03:13:49.147Z,0.5376
2023-03-27T03:14:50.831Z,0.5334
2023-03-27T03:15:52.507Z,0.5363
2023-03-27T03:16:54.177Z,0.5361
2023-03-27T03:17:55.780Z,0.5328
2023-03-27T03:18:57.451Z,0.5301
2023-03-27T03:19:59.069Z,0.5315
2023-03-27T03:21:00.782Z,0.5308
2023-03-27T03:22:02.386Z,0.5345
2023-03-27T03:23:04.056Z,0.5348
2023-03-27T03:24:05.696Z,0.5325
2023-03-27T03:25:07.370Z,0.5291
2023-03-27T03:26:09.022Z,0.5317
2023-03-27T03:27:10.693Z,0.5281
2023-03-27T03:28:12.303Z,0.5324
2023-03-27T03:29:13.972Z,0.5395
2023-03-27T03:30:16.985Z,0.5406
2023-03-27T03:31:17.362Z,0.5470
2023-03-27T03:32:18.916Z,0.5459
2023-03-27T03:33:20.582Z,0.5477
2023-03-27T03:34:22.203Z,0.5484
2023-03-27T03:35:23.898Z,0.5484
2023-03-27T03:36:25.526Z,0.5535
2023-03-27T03:37:27.178Z,0.5531
2023-03-27T03:38:28.815Z,0.5512
2023-03-27T03:39:30.490Z,0.5472
2023-03-27T03:40:32.112Z,0.5471
2023-03-27T03:41:33.804Z,0.5462
2023-03-27T03:42:35.422Z,0.5447
2023-03-27T03:43:37.086Z,0.5401
2023-03-27T03:44:38.741Z,0.5425
2023-03-27T03:45:40.395Z,0.5420
2023-03-27T03:46:42.041Z,0.5404
2023-03-27T03:47:43.725Z,0.5418
2023-03-27T03:48:45.317Z,0.5456
2023-03-27T03:49:46.993Z,0.5511
2023-03-27T03:50:48.623Z,0.5534
2023-03-27T03:52:03.775Z,0.5485
2023-03-27T03:52:51.921Z,0.5450
2023-03-27T03:53:53.586Z,0.5418
2023-03-27T03:54:55.239Z,0.5391
2023-03-27T03:55:56.883Z,0.5338
2023-03-27T03:56:58.557Z,0.5389
2023-03-27T03:58:00.192Z,0.5411
2023-03-27T03:59:01.846Z,0.5423
2023-03-27T04:00:03.504Z,0.5424
2023-03-27T04:01:05.126Z,0.5396
2023-03-27T04:02:06.837Z,0.5370
2023-03-27T04:03:08.640Z,0.5279
2023-03-27T04:04:10.104Z,0.5260
2023-03-27T04:05:11.745Z,0.5294
2023-03-27T04:06:13.419Z,0.5301
2023-03-27T04:07:15.060Z,0.5293
2023-03-27T04:08:16.715Z,0.5288
2023-03-27T04:09:18.341Z,0.5302
2023-03-27T04:10:20.048Z,0.5320
2023-03-27T04:11:21.660Z,0.5354
2023-03-27T04:12:23.353Z,0.5355
2023-03-27T04:13:24.987Z,0.5361
2023-03-27T04:14:26.622Z,0.5366
2023-03-27T04:15:28.266Z,0.5391
2023-03-27T04:16:29.994Z,0.5386
2023-03-27T04:17:31.622Z,0.5366
2023-03-27T04:18:33.367Z,0.5382
2023-03-27T04:19:34.888Z,0.5453
2023-03-27T04:20:36.537Z,0.5461
2023-03-27T04:21:38.158Z,0.5498
2023-03-27T04:22:39.847Z,0.5530
2023-03-27T04:23:41.463Z,0.5533
2023-03-27T04:24:43.140Z,0.5536
2023-03-27T04:25:44.810Z,0.5545
2023-03-27T04:26:46.441Z,0.5557
2023-03-27T04:27:48.088Z,0.5607
2023-03-27T04:28:49.730Z,0.5660
2023-03-27T04:29:51.369Z,0.5700
2023-03-27T04:30:53.038Z,0.5768
2023-03-27T04:31:54.681Z,0.5763
2023-03-27T04:32:56.389Z,0.5791
2023-03-27T04:33:57.977Z,0.5900
2023-03-27T04:34:59.651Z,0.5945
2023-03-27T04:36:06.360Z,0.5920
2023-03-27T04:37:02.958Z,0.5926
2023-03-27T04:38:04.616Z,0.5946
2023-03-27T04:39:06.260Z,0.5955
2023-03-27T04:40:07.892Z,0.5974
2023-03-27T04:41:09.545Z,0.6023
2023-03-27T04:42:11.178Z,0.6169
2023-03-27T04:43:12.887Z,0.6240
2023-03-27T04:44:14.493Z,0.6240
2023-03-27T04:45:16.190Z,0.6320
2023-03-27T04:46:17.825Z,0.6299
2023-03-27T04:47:19.476Z,0.6208
2023-03-27T04:48:21.140Z,0.6088
2023-03-27T04:49:22.780Z,0.6069
2023-03-27T04:50:24.403Z,0.6238
2023-03-27T04:51:26.089Z,0.6283
2023-03-27T04:52:27.725Z,0.6311
2023-03-27T04:53:29.556Z,0.6310
2023-03-27T04:54:31.055Z,0.6379
2023-03-27T04:55:32.680Z,0.6342
2023-03-27T04:56:34.363Z,0.6313
2023-03-27T04:57:35.987Z,0.6379
2023-03-27T04:58:37.945Z,0.6389
2023-03-27T04:59:39.301Z,0.6372
2023-03-27T05:00:40.987Z,0.6468
2023-03-27T05:01:42.606Z,0.6293
2023-03-27T05:02:44.270Z,0.6077
2023-03-27T05:03:45.976Z,0.5899
2023-03-27T05:04:47.551Z,0.5959
2023-03-27T05:05:49.190Z,0.6029
2023-03-27T05:06:50.872Z,0.5955
2023-03-27T05:07:52.580Z,0.5923
2023-03-27T05:08:54.177Z,0.5836
2023-03-27T05:09:55.777Z,0.5849
2023-03-27T05:10:57.712Z,0.5759
2023-03-27T05:11:59.098Z,0.5737
2023-03-27T05:13:00.769Z,0.5721
2023-03-27T05:14:02.426Z,0.5726
2023-03-27T05:15:04.089Z,0.5794
2023-03-27T05:16:05.720Z,0.5714
2023-03-27T05:17:07.374Z,0.5584
2023-03-27T05:18:09.322Z,0.5644
2023-03-27T05:19:10.767Z,0.5699
2023-03-27T05:20:12.319Z,0.5685
2023-03-27T05:21:13.974Z,0.5680
2023-03-27T05:22:15.626Z,0.5661
2023-03-27T05:23:17.288Z,0.5854
2023-03-27T05:24:18.931Z,0.5857
2023-03-27T05:25:20.586Z,0.5781
2023-03-27T05:26:22.215Z,0.5796
2023-03-27T05:27:23.923Z,0.5807
2023-03-27T05:28:25.525Z,0.5829
2023-03-27T05:29:27.232Z,0.5898
2023-03-27T05:30:28.927Z,0.5962
2023-03-27T05:31:30.573Z,0.5893
2023-03-27T05:32:32.170Z,0.5893
2023-03-27T05:33:33.785Z,0.5946
2023-03-27T05:34:35.496Z,0.6089
2023-03-27T05:35:37.125Z,0.6207
2023-03-27T05:36:38.773Z,0.6271
2023-03-27T05:37:40.405Z,0.6086
2023-03-27T05:38:42.064Z,0.5969
2023-03-27T05:39:43.732Z,0.5889
2023-03-27T05:40:45.374Z,0.5828
2023-03-27T05:41:47.005Z,0.5736
2023-03-27T05:42:48.674Z,0.5742
2023-03-27T05:43:51.241Z,0.5817
2023-03-27T05:44:51.996Z,0.5992
2023-03-27T05:45:53.626Z,0.6047
2023-03-27T05:46:55.291Z,0.6139
2023-03-27T05:47:56.991Z,0.6152
2023-03-27T05:48:58.592Z,0.6164
2023-03-27T05:50:00.249Z,0.6184
2023-03-27T05:51:01.903Z,0.6330
2023-03-27T05:52:03.510Z,0.6446
2023-03-27T05:53:05.200Z,0.6425
2023-03-27T05:54:06.809Z,0.6392
2023-03-27T05:55:08.523Z,0.6288
2023-03-27T05:56:10.116Z,0.6317
2023-03-27T05:57:11.914Z,0.6293
2023-03-27T05:58:13.462Z,0.6169
2023-03-27T05:59:15.077Z,0.6160
2023-03-27T06:00:16.762Z,0.6137
2023-03-27T06:01:18.388Z,0.5982
2023-03-27T06:02:21.517Z,0.5978
2023-03-27T06:03:21.876Z,0.6092
2023-03-27T06:04:23.358Z,0.6143
2023-03-27T06:05:25.023Z,0.6282
2023-03-27T06:06:26.637Z,0.6159
2023-03-27T06:07:28.305Z,0.6257
2023-03-27T06:08:29.933Z,0.6238
2023-03-27T06:09:31.583Z,0.6037
2023-03-27T06:10:33.250Z,0.6069
2023-03-27T06:11:34.889Z,0.6050
2023-03-27T06:12:36.526Z,0.6060
2023-03-27T06:13:38.260Z,0.6133
2023-03-27T06:14:39.906Z,0.6191
2023-03-27T06:15:41.635Z,0.6263
2023-03-27T06:16:43.201Z,0.6387
2023-03-27T06:17:44.894Z,0.6385
2023-03-27T06:18:46.498Z,0.6282
2023-03-27T06:19:48.184Z,0.6107
2023-03-27T06:20:49.815Z,0.6032
2023-03-27T06:21:51.460Z,0.6063
2023-03-27T06:22:53.104Z,0.6174
2023-03-27T06:23:54.763Z,0.6139
2023-03-27T06:24:56.389Z,0.6088
2023-03-27T06:25:58.378Z,0.6145
2023-03-27T06:26:59.691Z,0.6257
2023-03-27T06:28:01.364Z,0.6301
2023-03-27T06:29:08.142Z,0.6315
2023-03-27T06:30:04.676Z,0.6280
2023-03-27T06:31:06.355Z,0.6325
2023-03-27T06:32:07.981Z,0.6392
2023-03-27T06:33:09.621Z,0.6400
2023-03-27T06:34:11.284Z,0.6404
2023-03-27T06:35:12.896Z,0.6541
2023-03-27T06:36:14.625Z,0.6523
2023-03-27T06:37:16.181Z,0.6387
2023-03-27T06:38:17.862Z,0.6377
2023-03-27T06:39:19.479Z,0.6367
2023-03-27T06:40:21.139Z,0.6362
2023-03-27T06:41:22.802Z,0.6365
2023-03-27T06:42:24.445Z,0.6384
2023-03-27T06:43:26.075Z,0.6360
2023-03-27T06:44:27.738Z,0.6382
2023-03-27T06:45:29.393Z,0.6379
2023-03-27T06:46:42.688Z,0.6341
2023-03-27T06:47:36.382Z,0.6400
2023-03-27T06:48:34.366Z,0.6379
2023-03-27T06:49:35.975Z,0.6307
2023-03-27T06:50:37.629Z,0.6333
2023-03-27T06:51:39.281Z,0.6327
2023-03-27T06:52:40.928Z,0.6351
2023-03-27T06:53:42.558Z,0.6320
2023-03-27T06:54:44.216Z,0.6215
2023-03-27T06:55:45.868Z,0.6103
2023-03-27T06:56:47.610Z,0.6099
2023-03-27T06:57:49.166Z,0.6095
2023-03-27T06:58:50.836Z,0.6014
2023-03-27T06:59:52.488Z,0.6037
2023-03-27T07:00:54.129Z,0.5983
2023-03-27T07:01:55.830Z,0.6056
2023-03-27T07:02:57.420Z,0.6113
2023-03-27T07:03:59.065Z,0.6217
2023-03-27T07:05:04.649Z,0.6193
2023-03-27T07:06:02.556Z,0.6141
2023-03-27T07:07:04.049Z,0.6129
2023-03-27T07:08:18.997Z,0.6252
2023-03-27T07:09:07.318Z,0.6254
2023-03-27T07:10:08.962Z,0.6274
2023-03-27T07:11:12.266Z,0.6145
2023-03-27T07:12:12.278Z,0.6165
2023-03-27T07:13:13.919Z,0.6171
2023-03-27T07:14:15.589Z,0.6065
2023-03-27T07:15:17.295Z,0.5977
2023-03-27T07:16:18.892Z,0.5954
2023-03-27T07:17:20.532Z,0.6000
2023-03-27T07:18:22.216Z,0.6084
2023-03-27T07:19:23.822Z,0.6019
2023-03-27T07:20:25.473Z,0.5920
2023-03-27T07:21:27.137Z,0.5870
2023-03-27T07:22:28.799Z,0.5822
2023-03-27T07:23:30.435Z,0.5728
2023-03-27T07:24:32.060Z,0.5723
2023-03-27T07:25:33.744Z,0.5829
2023-03-27T07:26:35.354Z,0.5768
2023-03-27T07:27:37.063Z,0.5765
2023-03-27T07:28:38.729Z,0.5812
2023-03-27T07:29:40.337Z,0.5858
2023-03-27T07:30:41.983Z,0.5908
2023-03-27T07:31:57.525Z,0.5795
2023-03-27T07:32:45.408Z,0.5854
2023-03-27T07:33:47.068Z,0.5854
2023-03-27T07:34:48.579Z,0.5955
2023-03-27T07:35:50.256Z,0.6039
2023-03-27T07:36:51.894Z,0.6022
2023-03-27T07:37:53.579Z,0.6092
2023-03-27T07:38:55.184Z,0.6128
2023-03-27T07:39:56.847Z,0.6102
2023-03-27T07:40:58.504Z,0.5984
2023-03-27T07:42:00.164Z,0.5940
2023-03-27T07:43:01.834Z,0.5976
2023-03-27T07:44:03.464Z,0.5953
2023-03-27T07:45:05.090Z,0.5915
2023-03-27T07:46:06.803Z,0.5984
2023-03-27T07:47:08.397Z,0.5907
2023-03-27T07:48:10.087Z,0.5918
2023-03-27T07:49:11.685Z,0.5956
2023-03-27T07:50:13.380Z,0.5967
2023-03-27T07:51:14.982Z,0.5917
2023-03-27T07:52:16.738Z,0.5939
2023-03-27T07:53:32.806Z,0.5998
2023-03-27T07:54:19.945Z,0.6133
2023-03-27T07:55:21.582Z,0.6222
2023-03-27T07:56:23.276Z,0.6110
2023-03-27T07:57:25.041Z,0.5991
2023-03-27T07:58:26.857Z,0.5910
2023-03-27T07:59:28.197Z,0.5856
2023-03-27T08:00:29.980Z,0.5745
2023-03-27T08:01:31.480Z,0.5675
2023-03-27T08:02:33.188Z,0.5451
2023-03-27T08:03:34.922Z,0.5434
2023-03-27T08:04:36.584Z,0.5445
2023-03-27T08:05:38.080Z,0.5482
2023-03-27T08:06:39.751Z,0.5619
2023-03-27T08:07:41.389Z,0.5535
2023-03-27T08:08:43.092Z,0.5358
2023-03-27T08:09:44.697Z,0.5281
2023-03-27T08:10:46.361Z,0.5371
2023-03-27T08:11:48.010Z,0.5406
2023-03-27T08:12:49.668Z,0.5388
2023-03-27T08:13:51.330Z,0.5345
2023-03-27T08:14:52.968Z,0.5347
2023-03-27T08:15:54.750Z,0.5341
2023-03-27T08:17:08.648Z,0.5220
2023-03-27T08:17:57.937Z,0.5286
2023-03-27T08:18:59.640Z,0.5205
2023-03-27T08:20:01.226Z,0.5228
2023-03-27T08:21:02.957Z,0.5236
2023-03-27T08:22:04.501Z,0.5318
2023-03-27T08:23:06.191Z,0.5403
2023-03-27T08:24:07.833Z,0.5529
2023-03-27T08:25:09.502Z,0.5506
2023-03-27T08:26:11.101Z,0.5509
2023-03-27T08:27:12.798Z,0.5571
2023-03-27T08:28:14.433Z,0.5502
2023-03-27T08:29:16.138Z,0.5459
2023-03-27T08:30:17.794Z,0.5581
2023-03-27T08:31:19.487Z,0.5681
2023-03-27T08:32:21.035Z,0.5582
2023-03-27T08:33:22.739Z,0.5620
2023-03-27T08:34:24.397Z,0.5647
2023-03-27T08:35:26.026Z,0.5637
2023-03-27T08:36:27.632Z,0.5564
2023-03-27T08:37:29.265Z,0.5497
2023-03-27T08:38:30.964Z,0.5498
2023-03-27T08:39:32.630Z,0.5433
2023-03-27T08:40:34.219Z,0.5575
2023-03-27T08:41:35.882Z,0.5621
2023-03-27T08:42:37.556Z,0.5600
2023-03-27T08:43:39.142Z,0.5557
2023-03-27T08:44:40.873Z,0.5571
2023-03-27T08:45:42.470Z,0.5587
2023-03-27T08:46:44.136Z,0.5555
2023-03-27T08:48:48.556Z,0.5586
2023-03-27T08:49:50.144Z,0.5523
2023-03-27T08:50:51.817Z,0.5431
2023-03-27T08:51:53.406Z,0.5440
2023-03-27T08:52:55.059Z,0.5398
2023-03-27T08:53:56.719Z,0.5420
2023-03-27T08:54:58.502Z,0.5485
2023-03-27T08:56:00.003Z,0.5391
2023-03-27T08:57:01.759Z,0.5426
2023-03-27T08:58:03.334Z,0.5368
2023-03-27T08:59:04.992Z,0.5420
2023-03-27T09:00:06.650Z,0.5473
2023-03-27T09:01:08.301Z,0.5406
2023-03-27T09:02:09.989Z,0.5330
2023-03-27T09:03:11.721Z,0.5371
2023-03-27T09:04:13.218Z,0.5276
2023-03-27T09:05:14.931Z,0.5224
2023-03-27T09:06:16.567Z,0.5189
2023-03-27T09:07:18.188Z,0.5181
2023-03-27T09:08:19.804Z,0.5113
2023-03-27T09:09:21.461Z,0.5104
2023-03-27T09:10:23.199Z,0.5057
2023-03-27T09:11:24.804Z,0.4998
2023-03-27T09:12:26.430Z,0.5030
2023-03-27T09:13:28.027Z,0.5083
2023-03-27T09:14:29.686Z,0.5097
2023-03-27T09:15:31.384Z,0.5029
2023-03-27T09:16:33.122Z,0.5136
2023-03-27T09:17:34.683Z,0.5169
2023-03-27T09:18:36.316Z,0.5173
2023-03-27T09:19:37.947Z,0.5165
2023-03-27T09:20:39.662Z,0.5245
2023-03-27T09:21:41.229Z,0.5153
2023-03-27T09:22:42.904Z,0.5006
2023-03-27T09:23:44.523Z,0.5015
2023-03-27T09:24:46.236Z,0.5081
2023-03-27T09:25:47.926Z,0.5122
2023-03-27T09:27:01.072Z,0.5108
2023-03-27T09:27:51.132Z,0.5103
2023-03-27T09:28:52.806Z,0.5129
2023-03-27T09:30:05.960Z,0.5150
2023-03-27T09:30:56.226Z,0.5204
2023-03-27T09:31:57.744Z,0.5221
2023-03-27T09:32:59.448Z,0.5226
2023-03-27T09:34:01.001Z,0.5323
2023-03-27T09:35:02.752Z,0.5342
2023-03-27T09:36:04.460Z,0.5292
2023-03-27T09:37:06.056Z,0.5246
2023-03-27T09:38:07.640Z,0.5232
2023-03-27T09:39:09.314Z,0.5217
2023-03-27T09:40:10.954Z,0.5222
2023-03-27T09:41:12.634Z,0.5223
2023-03-27T09:42:14.238Z,0.5254
2023-03-27T09:43:15.920Z,0.5240
2023-03-27T09:44:17.596Z,0.5211
2023-03-27T09:45:19.301Z,0.5202
2023-03-27T09:46:20.933Z,0.5226
2023-03-27T09:47:22.520Z,0.5345
2023-03-27T09:48:24.185Z,0.5298
2023-03-27T09:49:25.814Z,0.5371
2023-03-27T09:50:27.945Z,0.5262
2023-03-27T09:51:29.269Z,0.5194
2023-03-27T09:52:30.711Z,0.5149
2023-03-27T09:53:32.434Z,0.5165
2023-03-27T09:54:34.058Z,0.5107
2023-03-27T09:55:35.717Z,0.5004
2023-03-27T09:56:37.392Z,0.5015
2023-03-27T09:57:39.077Z,0.5067
2023-03-27T09:58:40.678Z,0.5064
2023-03-27T09:59:42.307Z,0.5115
2023-03-27T10:00:44.031Z,0.5093
2023-03-27T10:01:45.632Z,0.5027
2023-03-27T10:02:47.297Z,0.5034
2023-03-27T10:03:49.108Z,0.5092
2023-03-27T10:04:50.548Z,0.5088
2023-03-27T10:05:52.216Z,0.5011
2023-03-27T10:06:53.852Z,0.5043
2023-03-27T10:07:55.522Z,0.5068
2023-03-27T10:08:57.165Z,0.4990
2023-03-27T10:09:58.836Z,0.4940
2023-03-27T10:11:00.485Z,0.4862
2023-03-27T10:12:02.190Z,0.4781
2023-03-27T10:13:03.767Z,0.4767
2023-03-27T10:14:05.454Z,0.4818
2023-03-27T10:15:07.112Z,0.4795
2023-03-27T10:16:08.837Z,0.4826
2023-03-27T10:17:10.450Z,0.4760
2023-03-27T10:18:12.199Z,0.4792
2023-03-27T10:19:13.855Z,0.4865
2023-03-27T10:20:15.491Z,0.4904
2023-03-27T10:21:17.100Z,0.4920
2023-03-27T10:22:18.766Z,0.4962
2023-03-27T10:23:20.359Z,0.4946
2023-03-27T10:24:22.005Z,0.4856
2023-03-27T10:25:23.678Z,0.4817
2023-03-27T10:26:25.343Z,0.4840
2023-03-27T10:27:26.976Z,0.4849
2023-03-27T10:28:28.609Z,0.4775
2023-03-27T10:29:30.262Z,0.4762
2023-03-27T10:30:31.912Z,0.4734
2023-03-27T10:31:33.588Z,0.4765
2023-03-27T10:32:35.268Z,0.4724
2023-03-27T10:33:36.885Z,0.4727
2023-03-27T10:34:38.517Z,0.4794
2023-03-27T10:35:40.179Z,0.4844
2023-03-27T10:36:41.842Z,0.4846
2023-03-27T10:37:49.773Z,0.4841
2023-03-27T10:38:45.132Z,0.4726
2023-03-27T10:39:46.756Z,0.4767
2023-03-27T10:40:48.426Z,0.4810
2023-03-27T10:41:50.067Z,0.4813
2023-03-27T10:42:51.782Z,0.4815
2023-03-27T10:43:53.360Z,0.4914
2023-03-27T10:44:55.030Z,0.5022
2023-03-27T10:45:56.764Z,0.4967
2023-03-27T10:46:58.347Z,0.4833
2023-03-27T10:48:00.038Z,0.4801
2023-03-27T10:49:01.635Z,0.4817
2023-03-27T10:50:03.267Z,0.4792
2023-03-27T10:51:04.945Z,0.4740
2023-03-27T10:52:06.560Z,0.4740
2023-03-27T10:53:08.336Z,0.4818
2023-03-27T10:54:09.902Z,0.4835
2023-03-27T10:55:11.537Z,0.4845
2023-03-27T10:56:13.176Z,0.4857
2023-03-27T10:57:14.868Z,0.4858
2023-03-27T10:58:16.481Z,0.4890
2023-03-27T10:59:21.509Z,0.4922
2023-03-27T11:00:19.763Z,0.4954
2023-03-27T11:01:21.505Z,0.4957
2023-03-27T11:02:23.115Z,0.4845
2023-03-27T11:03:24.807Z,0.4901
2023-03-27T11:04:26.378Z,0.4938
2023-03-27T11:05:28.092Z,0.4849
2023-03-27T11:06:29.698Z,0.4878
2023-03-27T11:07:31.369Z,0.4841
2023-03-27T11:08:33.062Z,0.4861
2023-03-27T11:09:34.708Z,0.4896
2023-03-27T11:10:36.320Z,0.4915
2023-03-27T11:11:38.031Z,0.4914
2023-03-27T11:12:39.608Z,0.4865
2023-03-27T11:13:41.279Z,0.4827
2023-03-27T11:14:42.917Z,0.4926
2023-03-27T11:15:44.608Z,0.4925
2023-03-27T11:16:46.242Z,0.4846
2023-03-27T11:17:47.905Z,0.4857
2023-03-27T11:18:49.573Z,0.4850
2023-03-27T11:19:51.176Z,0.4879
2023-03-27T11:20:52.789Z,0.4840
2023-03-27T11:21:54.485Z,0.4881
2023-03-27T11:22:56.138Z,0.4862
2023-03-27T11:23:57.926Z,0.4862
2023-03-27T11:24:59.429Z,0.4812
2023-03-27T11:26:01.075Z,0.4776
2023-03-27T11:27:02.754Z,0.4819
2023-03-27T11:28:04.444Z,0.4846
2023-03-27T11:29:06.059Z,0.4712
2023-03-27T11:30:07.705Z,0.4692
2023-03-27T11:31:12.112Z,0.4727
2023-03-27T11:32:10.995Z,0.4713
2023-03-27T11:33:12.608Z,0.4774
2023-03-27T11:34:14.345Z,0.4815
2023-03-27T11:35:15.923Z,0.4812
2023-03-27T11:36:17.619Z,0.4844
2023-03-27T11:37:19.217Z,0.4844
2023-03-27T11:38:20.911Z,0.4730
2023-03-27T11:39:22.626Z,0.4720
2023-03-27T11:40:24.232Z,0.4682
2023-03-27T11:41:25.847Z,0.4627
2023-03-27T11:42:27.604Z,0.4563
2023-03-27T11:43:29.135Z,0.4535
2023-03-27T11:44:30.847Z,0.4539
2023-03-27T11:45:32.452Z,0.4532
2023-03-27T11:46:34.168Z,0.4683
2023-03-27T11:47:35.759Z,0.4675
2023-03-27T11:48:37.394Z,0.4649
2023-03-27T11:49:39.141Z,0.4557
2023-03-27T11:50:40.750Z,0.4551
2023-03-27T11:51:42.403Z,0.4592
2023-03-27T11:52:43.997Z,0.4585
2023-03-27T11:53:45.684Z,0.4580
2023-03-27T11:54:47.379Z,0.4575
2023-03-27T11:55:49.008Z,0.4567
2023-03-27T11:56:50.643Z,0.4629
2023-03-27T11:57:52.278Z,0.4598
2023-03-27T11:58:53.917Z,0.4532
2023-03-27T11:59:55.616Z,0.4588
2023-03-27T12:00:57.393Z,0.4620
2023-03-27T12:01:58.936Z,0.4605
2023-03-27T12:03:00.574Z,0.4574
2023-03-27T12:04:02.320Z,0.4491
2023-03-27T12:05:03.866Z,0.4532
2023-03-27T12:06:05.556Z,0.4558
2023-03-27T12:07:09.836Z,0.4683
2023-03-27T12:08:08.790Z,0.4756
2023-03-27T12:09:10.428Z,0.4756
2023-03-27T12:10:12.140Z,0.4704
2023-03-27T12:11:13.716Z,0.4700
2023-03-27T12:12:15.391Z,0.4707
2023-03-27T12:13:17.021Z,0.4767
2023-03-27T12:14:19.140Z,0.4766
2023-03-27T12:15:20.421Z,0.4794
2023-03-27T12:16:22.092Z,0.4811
2023-03-27T12:17:23.725Z,0.4834
2023-03-27T12:18:35.277Z,0.4782
2023-03-27T12:19:29.680Z,0.4720
2023-03-27T12:20:28.745Z,0.4740
2023-03-27T12:21:30.330Z,0.4711
2023-03-27T12:22:31.921Z,0.4680
2023-03-27T12:23:33.522Z,0.4721
2023-03-27T12:24:35.196Z,0.4651
2023-03-27T12:25:36.931Z,0.4639
2023-03-27T12:26:38.626Z,0.4636
2023-03-27T12:27:40.163Z,0.4636
2023-03-27T12:28:41.864Z,0.4595
2023-03-27T12:29:43.447Z,0.4538
2023-03-27T12:30:45.159Z,0.4582
2023-03-27T12:31:46.757Z,0.4631
2023-03-27T12:32:48.452Z,0.4632
2023-03-27T12:33:50.010Z,0.4625
2023-03-27T12:34:51.712Z,0.4591
2023-03-27T12:35:53.444Z,0.4534
2023-03-27T12:36:55.011Z,0.4446
2023-03-27T12:37:56.633Z,0.4416
2023-03-27T12:38:58.285Z,0.4367
2023-03-27T12:39:59.935Z,0.4413
2023-03-27T12:41:01.618Z,0.4455
2023-03-27T12:42:03.258Z,0.4431
2023-03-27T12:43:04.918Z,0.4480
2023-03-27T12:44:06.522Z,0.4527
2023-03-27T12:45:08.223Z,0.4599
2023-03-27T12:46:09.897Z,0.4688
2023-03-27T12:47:11.502Z,0.4689
2023-03-27T12:48:13.162Z,0.4664
2023-03-27T12:49:14.804Z,0.4719
2023-03-27T12:50:16.446Z,0.4764